sensor_id;sensor_type;location;lat;lon;timestamp;P1;durP1;ratioP1;P2;durP2;ratioP2
32838;SDS011;19182;41.820;12.808;2022-11-15T00:02:07;8.43;;;6.28;;
32838;SDS011;19182;41.820;12.808;2022-11-15T00:04:33;8.60;;;6.47;;
32838;SDS011;19182;41.820;12.808;2022-11-15T00:06:59;10.00;;;6.60;;
32838;SDS011;19182;41.820;12.808;2022-11-15T00:09:26;9.05;;;5.63;;
32838;SDS011;19182;41.820;12.808;2022-11-15T00:11:53;8.98;;;5.13;;
32838;SDS011;19182;41.820;12.808;2022-11-15T00:14:18;8.05;;;4.82;;
32838;SDS011;19182;41.820;12.808;2022-11-15T00:16:45;5.43;;;4.70;;
32838;SDS011;19182;41.820;12.808;2022-11-15T00:19:11;10.13;;;4.55;;
32838;SDS011;19182;41.820;12.808;2022-11-15T00:21:37;10.73;;;5.07;;
32838;SDS011;19182;41.820;12.808;2022-11-15T00:24:02;9.60;;;5.20;;
32838;SDS011;19182;41.820;12.808;2022-11-15T00:26:28;8.10;;;5.15;;
32838;SDS011;19182;41.820;12.808;2022-11-15T00:28:55;10.80;;;5.45;;
32838;SDS011;19182;41.820;12.808;2022-11-15T00:31:22;8.25;;;5.53;;
32838;SDS011;19182;41.820;12.808;2022-11-15T00:33:48;8.05;;;4.68;;
32838;SDS011;19182;41.820;12.808;2022-11-15T00:36:15;8.65;;;4.40;;
32838;SDS011;19182;41.820;12.808;2022-11-15T00:38:41;7.32;;;4.38;;
32838;SDS011;19182;41.820;12.808;2022-11-15T00:41:08;6.32;;;4.22;;
32838;SDS011;19182;41.820;12.808;2022-11-15T00:43:34;21.63;;;4.53;;
32838;SDS011;19182;41.820;12.808;2022-11-15T00:46:01;8.13;;;5.00;;
32838;SDS011;19182;41.820;12.808;2022-11-15T00:48:27;7.03;;;4.30;;
32838;SDS011;19182;41.820;12.808;2022-11-15T00:50:53;6.40;;;3.80;;
32838;SDS011;19182;41.820;12.808;2022-11-15T00:53:19;7.70;;;4.90;;
32838;SDS011;19182;41.820;12.808;2022-11-15T00:55:44;5.43;;;4.30;;
32838;SDS011;19182;41.820;12.808;2022-11-15T00:58:11;5.47;;;4.60;;
32838;SDS011;19182;41.820;12.808;2022-11-15T01:00:37;6.05;;;4.88;;
32838;SDS011;19182;41.820;12.808;2022-11-15T01:03:03;5.68;;;4.60;;
32838;SDS011;19182;41.820;12.808;2022-11-15T01:05:31;7.28;;;4.70;;
32838;SDS011;19182;41.820;12.808;2022-11-15T01:07:57;12.68;;;4.82;;
32838;SDS011;19182;41.820;12.808;2022-11-15T01:10:24;7.00;;;4.30;;
32838;SDS011;19182;41.820;12.808;2022-11-15T01:12:50;10.27;;;4.80;;
32838;SDS011;19182;41.820;12.808;2022-11-15T01:15:16;5.88;;;4.95;;
32838;SDS011;19182;41.820;12.808;2022-11-15T01:17:42;7.07;;;4.97;;
32838;SDS011;19182;41.820;12.808;2022-11-15T01:20:08;7.35;;;4.63;;
32838;SDS011;19182;41.820;12.808;2022-11-15T01:22:35;7.40;;;4.95;;
32838;SDS011;19182;41.820;12.808;2022-11-15T01:25:00;7.15;;;4.85;;
32838;SDS011;19182;41.820;12.808;2022-11-15T01:27:26;9.55;;;4.82;;
32838;SDS011;19182;41.820;12.808;2022-11-15T01:29:53;7.40;;;4.50;;
32838;SDS011;19182;41.820;12.808;2022-11-15T01:32:18;5.30;;;4.30;;
32838;SDS011;19182;41.820;12.808;2022-11-15T01:34:45;5.97;;;4.13;;
32838;SDS011;19182;41.820;12.808;2022-11-15T01:37:12;6.15;;;3.83;;
32838;SDS011;19182;41.820;12.808;2022-11-15T01:39:39;5.93;;;4.15;;
32838;SDS011;19182;41.820;12.808;2022-11-15T01:42:08;6.35;;;4.25;;
32838;SDS011;19182;41.820;12.808;2022-11-15T01:44:51;11.82;;;4.35;;
32838;SDS011;19182;41.820;12.808;2022-11-15T01:50:27;8.90;;;4.22;;
32838;SDS011;19182;41.820;12.808;2022-11-15T01:52:48;6.20;;;4.13;;
32838;SDS011;19182;41.820;12.808;2022-11-15T01:55:20;4.22;;;3.65;;
32838;SDS011;19182;41.820;12.808;2022-11-15T01:57:50;7.13;;;3.92;;
32838;SDS011;19182;41.820;12.808;2022-11-15T02:00:20;5.38;;;4.20;;
32838;SDS011;19182;41.820;12.808;2022-11-15T02:02:45;7.32;;;4.05;;
32838;SDS011;19182;41.820;12.808;2022-11-15T02:05:13;6.30;;;4.07;;
32838;SDS011;19182;41.820;12.808;2022-11-15T02:07:39;5.00;;;4.03;;
32838;SDS011;19182;41.820;12.808;2022-11-15T02:10:17;6.47;;;4.32;;
32838;SDS011;19182;41.820;12.808;2022-11-15T02:12:46;11.75;;;4.05;;
32838;SDS011;19182;41.820;12.808;2022-11-15T02:15:14;5.45;;;4.28;;
32838;SDS011;19182;41.820;12.808;2022-11-15T02:31:28;7.47;;;4.90;;
32838;SDS011;19182;41.820;12.808;2022-11-15T02:41:47;6.55;;;5.50;;
32838;SDS011;19182;41.820;12.808;2022-11-15T02:44:38;8.18;;;5.78;;
32838;SDS011;19182;41.820;12.808;2022-11-15T02:47:09;7.70;;;5.45;;
32838;SDS011;19182;41.820;12.808;2022-11-15T02:49:42;7.88;;;5.55;;
32838;SDS011;19182;41.820;12.808;2022-11-15T02:52:17;11.00;;;5.72;;
32838;SDS011;19182;41.820;12.808;2022-11-15T02:54:53;8.23;;;5.95;;
32838;SDS011;19182;41.820;12.808;2022-11-15T03:00:07;7.75;;;6.00;;
32838;SDS011;19182;41.820;12.808;2022-11-15T03:05:18;13.40;;;7.82;;
32838;SDS011;19182;41.820;12.808;2022-11-15T03:13:21;11.82;;;8.50;;
32838;SDS011;19182;41.820;12.808;2022-11-15T03:15:56;13.55;;;9.07;;
32838;SDS011;19182;41.820;12.808;2022-11-15T03:18:38;13.90;;;10.38;;
32838;SDS011;19182;41.820;12.808;2022-11-15T03:21:08;14.73;;;10.60;;
32838;SDS011;19182;41.820;12.808;2022-11-15T03:23:36;15.90;;;11.00;;
32838;SDS011;19182;41.820;12.808;2022-11-15T03:26:03;16.92;;;11.13;;
32838;SDS011;19182;41.820;12.808;2022-11-15T03:31:18;16.73;;;11.52;;
32838;SDS011;19182;41.820;12.808;2022-11-15T03:34:05;16.70;;;12.30;;
32838;SDS011;19182;41.820;12.808;2022-11-15T03:36:35;17.98;;;12.75;;
32838;SDS011;19182;41.820;12.808;2022-11-15T03:39:04;17.35;;;12.23;;
32838;SDS011;19182;41.820;12.808;2022-11-15T03:41:48;21.08;;;12.38;;
32838;SDS011;19182;41.820;12.808;2022-11-15T03:47:01;19.52;;;13.10;;
32838;SDS011;19182;41.820;12.808;2022-11-15T03:49:46;23.13;;;13.40;;
32838;SDS011;19182;41.820;12.808;2022-11-15T03:52:21;22.27;;;13.85;;
32838;SDS011;19182;41.820;12.808;2022-11-15T03:54:51;17.65;;;12.60;;
32838;SDS011;19182;41.820;12.808;2022-11-15T03:57:20;24.17;;;14.20;;
32838;SDS011;19182;41.820;12.808;2022-11-15T03:59:46;23.70;;;14.65;;
32838;SDS011;19182;41.820;12.808;2022-11-15T04:02:13;20.10;;;14.63;;
32838;SDS011;19182;41.820;12.808;2022-11-15T04:04:40;24.27;;;16.13;;
32838;SDS011;19182;41.820;12.808;2022-11-15T04:07:07;28.95;;;15.80;;
32838;SDS011;19182;41.820;12.808;2022-11-15T04:09:32;25.02;;;15.95;;
32838;SDS011;19182;41.820;12.808;2022-11-15T04:12:19;22.08;;;14.85;;
32838;SDS011;19182;41.820;12.808;2022-11-15T04:14:59;26.20;;;14.98;;
32838;SDS011;19182;41.820;12.808;2022-11-15T04:20:16;20.77;;;14.25;;
32838;SDS011;19182;41.820;12.808;2022-11-15T04:23:01;24.02;;;15.68;;
32838;SDS011;19182;41.820;12.808;2022-11-15T04:25:47;20.58;;;14.52;;
32838;SDS011;19182;41.820;12.808;2022-11-15T04:28:16;20.38;;;13.85;;
32838;SDS011;19182;41.820;12.808;2022-11-15T04:30:42;22.08;;;14.05;;
32838;SDS011;19182;41.820;12.808;2022-11-15T04:33:08;19.48;;;12.80;;
32838;SDS011;19182;41.820;12.808;2022-11-15T04:35:35;21.35;;;13.70;;
32838;SDS011;19182;41.820;12.808;2022-11-15T04:38:04;24.25;;;14.43;;
32838;SDS011;19182;41.820;12.808;2022-11-15T04:40:31;22.05;;;14.05;;
32838;SDS011;19182;41.820;12.808;2022-11-15T04:42:57;17.55;;;12.48;;
32838;SDS011;19182;41.820;12.808;2022-11-15T04:45:23;21.98;;;13.10;;
32838;SDS011;19182;41.820;12.808;2022-11-15T04:47:49;22.50;;;12.93;;
32838;SDS011;19182;41.820;12.808;2022-11-15T04:50:16;19.40;;;11.82;;
32838;SDS011;19182;41.820;12.808;2022-11-15T04:52:43;21.52;;;12.38;;
32838;SDS011;19182;41.820;12.808;2022-11-15T04:55:19;17.50;;;12.52;;
32838;SDS011;19182;41.820;12.808;2022-11-15T04:57:45;19.00;;;11.88;;
32838;SDS011;19182;41.820;12.808;2022-11-15T05:00:13;20.25;;;12.82;;
32838;SDS011;19182;41.820;12.808;2022-11-15T05:02:41;19.40;;;13.20;;
32838;SDS011;19182;41.820;12.808;2022-11-15T05:05:25;17.92;;;11.70;;
32838;SDS011;19182;41.820;12.808;2022-11-15T05:07:51;17.83;;;11.68;;
32838;SDS011;19182;41.820;12.808;2022-11-15T05:10:17;16.10;;;12.35;;
32838;SDS011;19182;41.820;12.808;2022-11-15T05:12:44;16.60;;;11.63;;
32838;SDS011;19182;41.820;12.808;2022-11-15T05:15:12;16.27;;;11.43;;
32838;SDS011;19182;41.820;12.808;2022-11-15T05:17:37;16.65;;;11.23;;
32838;SDS011;19182;41.820;12.808;2022-11-15T05:20:03;17.42;;;11.68;;
32838;SDS011;19182;41.820;12.808;2022-11-15T05:22:29;17.40;;;11.55;;
32838;SDS011;19182;41.820;12.808;2022-11-15T05:24:54;14.75;;;11.15;;
32838;SDS011;19182;41.820;12.808;2022-11-15T05:27:20;15.57;;;10.65;;
32838;SDS011;19182;41.820;12.808;2022-11-15T05:29:46;16.95;;;11.25;;
32838;SDS011;19182;41.820;12.808;2022-11-15T05:32:13;15.30;;;10.30;;
32838;SDS011;19182;41.820;12.808;2022-11-15T05:34:38;17.00;;;10.77;;
32838;SDS011;19182;41.820;12.808;2022-11-15T05:37:04;14.05;;;10.30;;
32838;SDS011;19182;41.820;12.808;2022-11-15T05:39:32;12.50;;;9.25;;
32838;SDS011;19182;41.820;12.808;2022-11-15T05:42:00;14.02;;;10.23;;
32838;SDS011;19182;41.820;12.808;2022-11-15T05:44:36;16.38;;;9.38;;
32838;SDS011;19182;41.820;12.808;2022-11-15T05:47:03;14.38;;;8.55;;
32838;SDS011;19182;41.820;12.808;2022-11-15T05:49:33;13.52;;;8.80;;
32838;SDS011;19182;41.820;12.808;2022-11-15T05:52:05;15.88;;;9.93;;
32838;SDS011;19182;41.820;12.808;2022-11-15T05:57:01;13.77;;;8.75;;
32838;SDS011;19182;41.820;12.808;2022-11-15T05:59:30;12.75;;;8.45;;
32838;SDS011;19182;41.820;12.808;2022-11-15T06:01:59;12.73;;;8.68;;
32838;SDS011;19182;41.820;12.808;2022-11-15T06:04:26;11.98;;;8.52;;
32838;SDS011;19182;41.820;12.808;2022-11-15T06:06:52;12.30;;;8.55;;
32838;SDS011;19182;41.820;12.808;2022-11-15T06:09:18;13.48;;;9.45;;
32838;SDS011;19182;41.820;12.808;2022-11-15T06:11:44;14.85;;;9.48;;
32838;SDS011;19182;41.820;12.808;2022-11-15T06:14:10;15.82;;;9.20;;
32838;SDS011;19182;41.820;12.808;2022-11-15T06:16:36;15.85;;;8.38;;
32838;SDS011;19182;41.820;12.808;2022-11-15T06:19:02;12.45;;;9.02;;
32838;SDS011;19182;41.820;12.808;2022-11-15T06:21:30;13.50;;;9.48;;
32838;SDS011;19182;41.820;12.808;2022-11-15T06:23:56;16.80;;;10.00;;
32838;SDS011;19182;41.820;12.808;2022-11-15T06:26:22;14.38;;;9.95;;
32838;SDS011;19182;41.820;12.808;2022-11-15T06:28:47;16.05;;;10.48;;
32838;SDS011;19182;41.820;12.808;2022-11-15T06:31:13;16.65;;;10.25;;
32838;SDS011;19182;41.820;12.808;2022-11-15T06:33:39;15.10;;;10.77;;
32838;SDS011;19182;41.820;12.808;2022-11-15T06:36:06;14.52;;;10.43;;
32838;SDS011;19182;41.820;12.808;2022-11-15T06:38:34;13.98;;;10.45;;
32838;SDS011;19182;41.820;12.808;2022-11-15T06:41:06;16.77;;;10.90;;
32838;SDS011;19182;41.820;12.808;2022-11-15T06:43:35;16.10;;;11.57;;
32838;SDS011;19182;41.820;12.808;2022-11-15T06:46:02;15.48;;;10.52;;
32838;SDS011;19182;41.820;12.808;2022-11-15T06:48:33;16.27;;;10.73;;
32838;SDS011;19182;41.820;12.808;2022-11-15T06:51:00;15.07;;;10.50;;
32838;SDS011;19182;41.820;12.808;2022-11-15T06:53:27;16.35;;;10.80;;
32838;SDS011;19182;41.820;12.808;2022-11-15T06:55:57;14.68;;;10.68;;
32838;SDS011;19182;41.820;12.808;2022-11-15T06:58:23;15.48;;;11.70;;
32838;SDS011;19182;41.820;12.808;2022-11-15T07:00:49;13.32;;;10.68;;
32838;SDS011;19182;41.820;12.808;2022-11-15T07:03:15;15.82;;;10.40;;
32838;SDS011;19182;41.820;12.808;2022-11-15T07:05:41;14.00;;;10.63;;
32838;SDS011;19182;41.820;12.808;2022-11-15T07:08:06;15.15;;;10.50;;
32838;SDS011;19182;41.820;12.808;2022-11-15T07:10:35;12.93;;;10.20;;
32838;SDS011;19182;41.820;12.808;2022-11-15T07:13:01;18.77;;;11.00;;
32838;SDS011;19182;41.820;12.808;2022-11-15T07:15:26;12.63;;;10.05;;
32838;SDS011;19182;41.820;12.808;2022-11-15T07:17:52;16.35;;;10.52;;
32838;SDS011;19182;41.820;12.808;2022-11-15T07:20:18;12.00;;;9.48;;
32838;SDS011;19182;41.820;12.808;2022-11-15T07:22:44;23.77;;;11.10;;
32838;SDS011;19182;41.820;12.808;2022-11-15T07:25:10;14.38;;;9.13;;
32838;SDS011;19182;41.820;12.808;2022-11-15T07:27:37;13.05;;;9.82;;
32838;SDS011;19182;41.820;12.808;2022-11-15T07:30:03;11.50;;;8.65;;
32838;SDS011;19182;41.820;12.808;2022-11-15T07:32:29;11.50;;;9.05;;
32838;SDS011;19182;41.820;12.808;2022-11-15T07:34:55;12.25;;;8.90;;
32838;SDS011;19182;41.820;12.808;2022-11-15T07:37:22;11.32;;;9.30;;
32838;SDS011;19182;41.820;12.808;2022-11-15T07:39:53;12.13;;;9.05;;
32838;SDS011;19182;41.820;12.808;2022-11-15T07:42:19;12.85;;;9.23;;
32838;SDS011;19182;41.820;12.808;2022-11-15T07:45:05;12.90;;;9.27;;
32838;SDS011;19182;41.820;12.808;2022-11-15T07:47:34;13.52;;;9.90;;
32838;SDS011;19182;41.820;12.808;2022-11-15T07:50:00;15.88;;;9.40;;
32838;SDS011;19182;41.820;12.808;2022-11-15T07:52:26;12.98;;;10.35;;
32838;SDS011;19182;41.820;12.808;2022-11-15T07:54:51;12.00;;;9.43;;
32838;SDS011;19182;41.820;12.808;2022-11-15T07:57:17;14.98;;;10.48;;
32838;SDS011;19182;41.820;12.808;2022-11-15T07:59:43;14.45;;;10.30;;
32838;SDS011;19182;41.820;12.808;2022-11-15T08:02:09;19.30;;;10.27;;
32838;SDS011;19182;41.820;12.808;2022-11-15T08:04:35;14.85;;;11.27;;
32838;SDS011;19182;41.820;12.808;2022-11-15T08:07:00;16.20;;;11.23;;
32838;SDS011;19182;41.820;12.808;2022-11-15T08:09:27;16.30;;;9.98;;
32838;SDS011;19182;41.820;12.808;2022-11-15T08:11:53;12.93;;;9.77;;
32838;SDS011;19182;41.820;12.808;2022-11-15T08:14:18;12.27;;;9.57;;
32838;SDS011;19182;41.820;12.808;2022-11-15T08:16:46;12.57;;;10.07;;
32838;SDS011;19182;41.820;12.808;2022-11-15T08:19:15;20.75;;;11.23;;
32838;SDS011;19182;41.820;12.808;2022-11-15T08:21:42;15.68;;;10.68;;
32838;SDS011;19182;41.820;12.808;2022-11-15T08:24:08;14.95;;;11.05;;
32838;SDS011;19182;41.820;12.808;2022-11-15T08:26:37;17.83;;;11.20;;
32838;SDS011;19182;41.820;12.808;2022-11-15T08:29:04;17.25;;;11.20;;
32838;SDS011;19182;41.820;12.808;2022-11-15T08:31:30;18.55;;;13.23;;
32838;SDS011;19182;41.820;12.808;2022-11-15T08:33:56;17.00;;;12.68;;
32838;SDS011;19182;41.820;12.808;2022-11-15T08:36:22;18.02;;;13.77;;
32838;SDS011;19182;41.820;12.808;2022-11-15T08:38:48;19.45;;;14.43;;
32838;SDS011;19182;41.820;12.808;2022-11-15T08:41:14;19.85;;;14.63;;
32838;SDS011;19182;41.820;12.808;2022-11-15T08:43:48;22.23;;;14.90;;
32838;SDS011;19182;41.820;12.808;2022-11-15T08:46:15;22.85;;;16.23;;
32838;SDS011;19182;41.820;12.808;2022-11-15T08:48:41;19.95;;;15.52;;
32838;SDS011;19182;41.820;12.808;2022-11-15T08:51:06;22.95;;;14.77;;
32838;SDS011;19182;41.820;12.808;2022-11-15T08:53:33;20.45;;;13.60;;
32838;SDS011;19182;41.820;12.808;2022-11-15T08:55:59;19.15;;;13.82;;
32838;SDS011;19182;41.820;12.808;2022-11-15T08:58:24;18.63;;;13.18;;
32838;SDS011;19182;41.820;12.808;2022-11-15T09:00:50;28.63;;;14.77;;
32838;SDS011;19182;41.820;12.808;2022-11-15T09:03:16;25.60;;;14.93;;
32838;SDS011;19182;41.820;12.808;2022-11-15T09:05:44;17.02;;;13.77;;
32838;SDS011;19182;41.820;12.808;2022-11-15T09:08:10;20.08;;;14.40;;
32838;SDS011;19182;41.820;12.808;2022-11-15T09:10:37;23.20;;;13.15;;
32838;SDS011;19182;41.820;12.808;2022-11-15T09:13:03;19.58;;;13.65;;
32838;SDS011;19182;41.820;12.808;2022-11-15T09:15:31;14.68;;;12.35;;
32838;SDS011;19182;41.820;12.808;2022-11-15T09:17:58;15.63;;;12.55;;
32838;SDS011;19182;41.820;12.808;2022-11-15T09:20:24;22.17;;;13.52;;
32838;SDS011;19182;41.820;12.808;2022-11-15T09:22:50;21.73;;;13.10;;
32838;SDS011;19182;41.820;12.808;2022-11-15T09:25:15;15.82;;;12.65;;
32838;SDS011;19182;41.820;12.808;2022-11-15T09:27:41;20.13;;;13.23;;
32838;SDS011;19182;41.820;12.808;2022-11-15T09:30:07;14.95;;;11.43;;
32838;SDS011;19182;41.820;12.808;2022-11-15T09:32:33;13.88;;;10.20;;
32838;SDS011;19182;41.820;12.808;2022-11-15T09:34:59;15.10;;;11.20;;
32838;SDS011;19182;41.820;12.808;2022-11-15T09:37:25;16.92;;;10.75;;
32838;SDS011;19182;41.820;12.808;2022-11-15T09:39:51;14.95;;;10.18;;
32838;SDS011;19182;41.820;12.808;2022-11-15T09:45:03;11.82;;;9.50;;
32838;SDS011;19182;41.820;12.808;2022-11-15T09:50:48;11.80;;;7.65;;
32838;SDS011;19182;41.820;12.808;2022-11-15T09:53:27;10.93;;;6.97;;
32838;SDS011;19182;41.820;12.808;2022-11-15T09:56:01;10.80;;;7.95;;
32838;SDS011;19182;41.820;12.808;2022-11-15T09:58:39;10.90;;;8.10;;
32838;SDS011;19182;41.820;12.808;2022-11-15T10:04:50;8.45;;;7.43;;
32838;SDS011;19182;41.820;12.808;2022-11-15T10:07:31;7.90;;;6.55;;
32838;SDS011;19182;41.820;12.808;2022-11-15T10:10:52;7.05;;;6.35;;
32838;SDS011;19182;41.820;12.808;2022-11-15T10:13:16;8.30;;;6.25;;
32838;SDS011;19182;41.820;12.808;2022-11-15T10:15:51;14.48;;;7.10;;
32838;SDS011;19182;41.820;12.808;2022-11-15T10:18:40;9.45;;;7.97;;
32838;SDS011;19182;41.820;12.808;2022-11-15T10:21:24;13.25;;;7.75;;
32838;SDS011;19182;41.820;12.808;2022-11-15T10:24:11;9.50;;;7.97;;
32838;SDS011;19182;41.820;12.808;2022-11-15T10:26:37;9.93;;;7.80;;
32838;SDS011;19182;41.820;12.808;2022-11-15T10:29:04;8.50;;;7.35;;
32838;SDS011;19182;41.820;12.808;2022-11-15T10:31:30;8.63;;;7.13;;
32838;SDS011;19182;41.820;12.808;2022-11-15T10:34:08;8.88;;;6.82;;
32838;SDS011;19182;41.820;12.808;2022-11-15T10:36:38;8.30;;;6.35;;
32838;SDS011;19182;41.820;12.808;2022-11-15T10:39:18;6.40;;;5.80;;
32838;SDS011;19182;41.820;12.808;2022-11-15T10:41:44;9.55;;;6.13;;
32838;SDS011;19182;41.820;12.808;2022-11-15T10:46:43;8.93;;;6.45;;
32838;SDS011;19182;41.820;12.808;2022-11-15T10:49:16;7.95;;;5.68;;
32838;SDS011;19182;41.820;12.808;2022-11-15T10:51:54;7.65;;;5.20;;
32838;SDS011;19182;41.820;12.808;2022-11-15T10:54:45;7.70;;;5.25;;
32838;SDS011;19182;41.820;12.808;2022-11-15T10:57:33;7.75;;;5.68;;
32838;SDS011;19182;41.820;12.808;2022-11-15T11:03:05;7.00;;;5.63;;
32838;SDS011;19182;41.820;12.808;2022-11-15T11:05:43;7.80;;;5.07;;
32838;SDS011;19182;41.820;12.808;2022-11-15T11:13:26;8.27;;;5.82;;
32838;SDS011;19182;41.820;12.808;2022-11-15T11:15:55;7.72;;;5.55;;
32838;SDS011;19182;41.820;12.808;2022-11-15T11:19:18;9.73;;;5.88;;
32838;SDS011;19182;41.820;12.808;2022-11-15T11:21:44;7.43;;;6.60;;
32838;SDS011;19182;41.820;12.808;2022-11-15T11:30:17;7.78;;;5.70;;
32838;SDS011;19182;41.820;12.808;2022-11-15T11:33:07;6.45;;;5.22;;
32838;SDS011;19182;41.820;12.808;2022-11-15T11:35:50;8.07;;;5.05;;
32838;SDS011;19182;41.820;12.808;2022-11-15T11:38:50;9.10;;;5.40;;
32838;SDS011;19182;41.820;12.808;2022-11-15T11:44:39;6.00;;;5.22;;
32838;SDS011;19182;41.820;12.808;2022-11-15T11:47:23;6.35;;;5.18;;
32838;SDS011;19182;41.820;12.808;2022-11-15T11:50:41;7.40;;;5.05;;
32838;SDS011;19182;41.820;12.808;2022-11-15T11:52:59;6.80;;;5.85;;
32838;SDS011;19182;41.820;12.808;2022-11-15T12:09:38;10.30;;;7.05;;
32838;SDS011;19182;41.820;12.808;2022-11-15T12:15:12;7.97;;;7.10;;
32838;SDS011;19182;41.820;12.808;2022-11-15T12:17:45;9.70;;;7.30;;
32838;SDS011;19182;41.820;12.808;2022-11-15T12:22:56;9.77;;;7.25;;
32838;SDS011;19182;41.820;12.808;2022-11-15T12:25:31;8.95;;;7.18;;
32838;SDS011;19182;41.820;12.808;2022-11-15T12:33:41;12.00;;;8.00;;
32838;SDS011;19182;41.820;12.808;2022-11-15T12:38:59;11.68;;;7.82;;
32838;SDS011;19182;41.820;12.808;2022-11-15T12:43:54;14.18;;;8.13;;
32838;SDS011;19182;41.820;12.808;2022-11-15T12:48:55;14.18;;;8.38;;
32838;SDS011;19182;41.820;12.808;2022-11-15T13:02:24;15.13;;;9.88;;
32838;SDS011;19182;41.820;12.808;2022-11-15T13:22:44;15.32;;;11.25;;
32838;SDS011;19182;41.820;12.808;2022-11-15T13:33:59;20.73;;;12.40;;
32838;SDS011;19182;41.820;12.808;2022-11-15T13:36:32;24.55;;;15.25;;
32838;SDS011;19182;41.820;12.808;2022-11-15T13:41:44;25.48;;;15.27;;
32838;SDS011;19182;41.820;12.808;2022-11-15T13:44:21;19.70;;;12.00;;
32838;SDS011;19182;41.820;12.808;2022-11-15T13:47:01;20.38;;;12.38;;
32838;SDS011;19182;41.820;12.808;2022-11-15T13:49:40;33.22;;;18.65;;
32838;SDS011;19182;41.820;12.808;2022-11-15T13:52:09;15.57;;;10.40;;
32838;SDS011;19182;41.820;12.808;2022-11-15T13:57:44;19.77;;;11.90;;
32838;SDS011;19182;41.820;12.808;2022-11-15T14:02:51;26.52;;;15.07;;
32838;SDS011;19182;41.820;12.808;2022-11-15T14:05:18;24.15;;;13.82;;
32838;SDS011;19182;41.820;12.808;2022-11-15T14:10:44;16.80;;;11.48;;
32838;SDS011;19182;41.820;12.808;2022-11-15T14:13:31;24.17;;;12.82;;
32838;SDS011;19182;41.820;12.808;2022-11-15T14:16:12;25.67;;;15.07;;
32838;SDS011;19182;41.820;12.808;2022-11-15T14:18:50;19.67;;;10.90;;
32838;SDS011;19182;41.820;12.808;2022-11-15T14:21:17;37.47;;;20.50;;
32838;SDS011;19182;41.820;12.808;2022-11-15T14:23:44;25.48;;;12.80;;
32838;SDS011;19182;41.820;12.808;2022-11-15T14:29:20;21.55;;;13.13;;
32838;SDS011;19182;41.820;12.808;2022-11-15T14:31:52;20.30;;;12.35;;
32838;SDS011;19182;41.820;12.808;2022-11-15T14:34:36;14.70;;;10.25;;
32838;SDS011;19182;41.820;12.808;2022-11-15T14:37:19;12.07;;;9.20;;
32838;SDS011;19182;41.820;12.808;2022-11-15T14:39:48;13.32;;;10.20;;
32838;SDS011;19182;41.820;12.808;2022-11-15T14:42:14;15.68;;;9.57;;
32838;SDS011;19182;41.820;12.808;2022-11-15T14:44:40;14.82;;;9.52;;
32838;SDS011;19182;41.820;12.808;2022-11-15T14:47:06;20.25;;;9.93;;
32838;SDS011;19182;41.820;12.808;2022-11-15T14:49:31;13.35;;;9.43;;
32838;SDS011;19182;41.820;12.808;2022-11-15T14:51:57;14.57;;;9.13;;
32838;SDS011;19182;41.820;12.808;2022-11-15T14:54:24;19.10;;;10.57;;
32838;SDS011;19182;41.820;12.808;2022-11-15T14:56:51;14.23;;;10.05;;
32838;SDS011;19182;41.820;12.808;2022-11-15T14:59:16;16.35;;;11.70;;
32838;SDS011;19182;41.820;12.808;2022-11-15T15:01:42;18.20;;;11.85;;
32838;SDS011;19182;41.820;12.808;2022-11-15T15:04:09;15.90;;;11.48;;
32838;SDS011;19182;41.820;12.808;2022-11-15T15:06:35;16.33;;;10.77;;
32838;SDS011;19182;41.820;12.808;2022-11-15T15:09:02;17.15;;;11.45;;
32838;SDS011;19182;41.820;12.808;2022-11-15T15:11:30;19.13;;;12.20;;
32838;SDS011;19182;41.820;12.808;2022-11-15T15:13:57;25.95;;;15.02;;
32838;SDS011;19182;41.820;12.808;2022-11-15T15:16:41;28.42;;;15.57;;
32838;SDS011;19182;41.820;12.808;2022-11-15T15:19:07;31.52;;;16.65;;
32838;SDS011;19182;41.820;12.808;2022-11-15T15:21:33;33.30;;;17.45;;
32838;SDS011;19182;41.820;12.808;2022-11-15T15:23:59;42.47;;;20.55;;
32838;SDS011;19182;41.820;12.808;2022-11-15T15:26:25;37.70;;;19.55;;
32838;SDS011;19182;41.820;12.808;2022-11-15T15:28:51;50.85;;;23.92;;
32838;SDS011;19182;41.820;12.808;2022-11-15T15:31:20;38.78;;;21.55;;
32838;SDS011;19182;41.820;12.808;2022-11-15T15:33:46;26.02;;;16.90;;
32838;SDS011;19182;41.820;12.808;2022-11-15T15:36:12;28.92;;;17.05;;
32838;SDS011;19182;41.820;12.808;2022-11-15T15:38:41;34.17;;;22.85;;
32838;SDS011;19182;41.820;12.808;2022-11-15T15:41:10;33.60;;;20.33;;
32838;SDS011;19182;41.820;12.808;2022-11-15T15:43:38;33.53;;;20.45;;
32838;SDS011;19182;41.820;12.808;2022-11-15T15:46:07;117.65;;;55.75;;
32838;SDS011;19182;41.820;12.808;2022-11-15T15:48:37;22.83;;;17.48;;
32838;SDS011;19182;41.820;12.808;2022-11-15T15:51:05;27.85;;;18.33;;
32838;SDS011;19182;41.820;12.808;2022-11-15T15:53:32;32.22;;;19.83;;
32838;SDS011;19182;41.820;12.808;2022-11-15T15:55:59;26.15;;;17.25;;
32838;SDS011;19182;41.820;12.808;2022-11-15T15:58:24;24.80;;;18.00;;
32838;SDS011;19182;41.820;12.808;2022-11-15T16:00:50;28.08;;;19.27;;
32838;SDS011;19182;41.820;12.808;2022-11-15T16:03:16;28.20;;;19.90;;
32838;SDS011;19182;41.820;12.808;2022-11-15T16:05:43;33.70;;;21.27;;
32838;SDS011;19182;41.820;12.808;2022-11-15T16:08:16;31.73;;;20.50;;
32838;SDS011;19182;41.820;12.808;2022-11-15T16:10:43;36.55;;;21.05;;
32838;SDS011;19182;41.820;12.808;2022-11-15T16:13:11;38.05;;;21.98;;
32838;SDS011;19182;41.820;12.808;2022-11-15T16:15:38;30.95;;;19.55;;
32838;SDS011;19182;41.820;12.808;2022-11-15T16:18:04;30.60;;;19.42;;
32838;SDS011;19182;41.820;12.808;2022-11-15T16:20:41;24.80;;;18.17;;
32838;SDS011;19182;41.820;12.808;2022-11-15T16:23:14;26.80;;;18.67;;
32838;SDS011;19182;41.820;12.808;2022-11-15T16:25:45;24.55;;;18.17;;
32838;SDS011;19182;41.820;12.808;2022-11-15T16:28:22;28.80;;;18.08;;
32838;SDS011;19182;41.820;12.808;2022-11-15T16:31:04;24.27;;;18.48;;
32838;SDS011;19182;41.820;12.808;2022-11-15T16:33:36;21.70;;;17.33;;
32838;SDS011;19182;41.820;12.808;2022-11-15T16:36:03;26.67;;;18.73;;
32838;SDS011;19182;41.820;12.808;2022-11-15T16:38:30;22.75;;;18.48;;
32838;SDS011;19182;41.820;12.808;2022-11-15T16:40:56;23.98;;;18.17;;
32838;SDS011;19182;41.820;12.808;2022-11-15T16:43:22;25.20;;;18.75;;
32838;SDS011;19182;41.820;12.808;2022-11-15T16:45:50;27.25;;;18.60;;
32838;SDS011;19182;41.820;12.808;2022-11-15T16:48:21;27.67;;;19.58;;
32838;SDS011;19182;41.820;12.808;2022-11-15T16:50:49;34.05;;;20.75;;
32838;SDS011;19182;41.820;12.808;2022-11-15T16:53:15;61.90;;;32.55;;
32838;SDS011;19182;41.820;12.808;2022-11-15T16:55:41;28.50;;;20.13;;
32838;SDS011;19182;41.820;12.808;2022-11-15T16:58:08;26.65;;;18.52;;
32838;SDS011;19182;41.820;12.808;2022-11-15T17:00:34;26.13;;;18.83;;
32838;SDS011;19182;41.820;12.808;2022-11-15T17:03:03;34.15;;;18.65;;
32838;SDS011;19182;41.820;12.808;2022-11-15T17:05:28;28.67;;;18.50;;
32838;SDS011;19182;41.820;12.808;2022-11-15T17:07:54;27.92;;;19.63;;
32838;SDS011;19182;41.820;12.808;2022-11-15T17:10:21;28.25;;;19.73;;
32838;SDS011;19182;41.820;12.808;2022-11-15T17:12:47;29.20;;;20.60;;
32838;SDS011;19182;41.820;12.808;2022-11-15T17:15:14;27.13;;;19.73;;